Main page
METAR-TAF:

Airports :

Milan, Italy

Malpensa Airport

latitude: 45-37N, longitude: 008-44E, elevation: 234 m

Current weather observation

The report was made 34 minutes ago, at 15:50 UTC
Wind 7 kt from the South/Southwest, varying between South/Southeast and West/Southwest
Temperature 29°C
Humidity 43%
Pressure 1014 hPa
Visibility 10 km or more
Few clouds at a height of 4000 ft

METAR: LIMC 291550Z 20007KT 160V240 9999 FEW040 29/15 Q1014 NOSIG

Time: 18:24 (16:24 UTC)

Forecast

The report was made 5 hours and 24 minutes ago, at 11:00 UTC
Forecast valid from 29 at 12 UTC to 30 at 18 UTC
Wind 5 kt from the North/Northeast
Visibility 10 km or more
no clouds below 1500 m and no cumulonimbus
Temporary
from 29 at 23 UTC to 30 at 06 UTC
Visibility: 4000 m
thunderstorm, rain

TAF: LIMC 291100Z 2912/3018 03005KT CAVOK TEMPO 2923/3006 4000 TSRA

METAR-TAF

Weather observations and forecasts of more than 4000 airports (METAR and TAF reports).

The available stations are represented by yellow and red dots on the map.

Hover mouse over dot to see the name of the station.

Then click to see weather observations and forecasts.

To change the map : click on the green buttons with a black cross to zoom in, on the green button with a dash to zoom out, or on the green arrows for adjacent maps.


METAR-TAF: